sensor_id;sensor_type;location;lat;lon;timestamp;P1;durP1;ratioP1;P2;durP2;ratioP2
19163;SDS011;9714;51.208;4.242;2023-02-16T00:04:34;66.70;;;38.77;;
19163;SDS011;9714;51.208;4.242;2023-02-16T00:15:49;74.13;;;38.70;;
19163;SDS011;9714;51.208;4.242;2023-02-16T00:18:22;71.83;;;40.03;;
19163;SDS011;9714;51.208;4.242;2023-02-16T00:20:55;76.37;;;41.67;;
19163;SDS011;9714;51.208;4.242;2023-02-16T00:26:14;77.60;;;40.60;;
19163;SDS011;9714;51.208;4.242;2023-02-16T00:28:43;77.60;;;40.67;;
19163;SDS011;9714;51.208;4.242;2023-02-16T00:37:33;71.13;;;39.37;;
19163;SDS011;9714;51.208;4.242;2023-02-16T00:42:45;80.13;;;42.67;;
19163;SDS011;9714;51.208;4.242;2023-02-16T00:51:30;72.43;;;40.33;;
19163;SDS011;9714;51.208;4.242;2023-02-16T00:57:29;72.37;;;41.10;;
19163;SDS011;9714;51.208;4.242;2023-02-16T00:59:59;74.27;;;40.80;;
19163;SDS011;9714;51.208;4.242;2023-02-16T01:02:30;77.50;;;42.73;;
19163;SDS011;9714;51.208;4.242;2023-02-16T01:04:59;76.30;;;42.80;;
19163;SDS011;9714;51.208;4.242;2023-02-16T01:07:26;70.70;;;42.17;;
19163;SDS011;9714;51.208;4.242;2023-02-16T01:10:11;74.33;;;41.60;;
19163;SDS011;9714;51.208;4.242;2023-02-16T01:12:57;77.33;;;43.10;;
19163;SDS011;9714;51.208;4.242;2023-02-16T01:15:26;76.23;;;43.60;;
19163;SDS011;9714;51.208;4.242;2023-02-16T01:17:53;75.07;;;42.60;;
19163;SDS011;9714;51.208;4.242;2023-02-16T01:20:21;79.17;;;43.23;;
19163;SDS011;9714;51.208;4.242;2023-02-16T01:22:49;71.17;;;42.43;;
19163;SDS011;9714;51.208;4.242;2023-02-16T01:25:17;73.93;;;42.83;;
19163;SDS011;9714;51.208;4.242;2023-02-16T01:27:48;79.00;;;42.77;;
19163;SDS011;9714;51.208;4.242;2023-02-16T01:33:07;72.17;;;43.13;;
19163;SDS011;9714;51.208;4.242;2023-02-16T01:35:35;74.57;;;41.77;;
19163;SDS011;9714;51.208;4.242;2023-02-16T01:38:02;79.10;;;42.40;;
19163;SDS011;9714;51.208;4.242;2023-02-16T01:40:35;77.60;;;43.27;;
19163;SDS011;9714;51.208;4.242;2023-02-16T01:45:45;75.73;;;43.00;;
19163;SDS011;9714;51.208;4.242;2023-02-16T01:50:51;76.10;;;42.33;;
19163;SDS011;9714;51.208;4.242;2023-02-16T01:53:25;75.63;;;44.27;;
19163;SDS011;9714;51.208;4.242;2023-02-16T01:55:57;80.80;;;44.37;;
19163;SDS011;9714;51.208;4.242;2023-02-16T01:58:30;81.90;;;45.27;;
19163;SDS011;9714;51.208;4.242;2023-02-16T02:04:24;74.87;;;42.83;;
19163;SDS011;9714;51.208;4.242;2023-02-16T02:07:14;76.57;;;42.00;;
19163;SDS011;9714;51.208;4.242;2023-02-16T02:09:49;73.60;;;42.07;;
19163;SDS011;9714;51.208;4.242;2023-02-16T02:12:26;78.23;;;44.23;;
19163;SDS011;9714;51.208;4.242;2023-02-16T02:14:58;81.70;;;44.10;;
19163;SDS011;9714;51.208;4.242;2023-02-16T02:17:25;76.47;;;43.67;;
19163;SDS011;9714;51.208;4.242;2023-02-16T02:19:56;78.20;;;43.23;;
19163;SDS011;9714;51.208;4.242;2023-02-16T02:22:37;90.77;;;46.07;;
19163;SDS011;9714;51.208;4.242;2023-02-16T02:28:56;82.40;;;43.90;;
19163;SDS011;9714;51.208;4.242;2023-02-16T02:31:39;79.30;;;44.63;;
19163;SDS011;9714;51.208;4.242;2023-02-16T02:34:17;75.97;;;43.20;;
19163;SDS011;9714;51.208;4.242;2023-02-16T02:36:59;76.87;;;44.00;;
19163;SDS011;9714;51.208;4.242;2023-02-16T02:39:33;77.27;;;43.57;;
19163;SDS011;9714;51.208;4.242;2023-02-16T02:44:47;78.57;;;42.67;;
19163;SDS011;9714;51.208;4.242;2023-02-16T02:47:35;72.50;;;40.57;;
19163;SDS011;9714;51.208;4.242;2023-02-16T02:53:28;76.60;;;43.13;;
19163;SDS011;9714;51.208;4.242;2023-02-16T02:55:57;74.53;;;42.10;;
19163;SDS011;9714;51.208;4.242;2023-02-16T02:58:43;75.00;;;41.97;;
19163;SDS011;9714;51.208;4.242;2023-02-16T03:01:34;71.87;;;41.27;;
19163;SDS011;9714;51.208;4.242;2023-02-16T03:04:05;77.27;;;43.50;;
19163;SDS011;9714;51.208;4.242;2023-02-16T03:06:36;78.03;;;42.53;;
19163;SDS011;9714;51.208;4.242;2023-02-16T03:09:07;76.53;;;43.13;;
19163;SDS011;9714;51.208;4.242;2023-02-16T03:11:39;76.40;;;42.73;;
19163;SDS011;9714;51.208;4.242;2023-02-16T03:14:25;77.90;;;43.03;;
19163;SDS011;9714;51.208;4.242;2023-02-16T03:16:58;83.03;;;43.60;;
19163;SDS011;9714;51.208;4.242;2023-02-16T03:19:44;73.00;;;43.10;;
19163;SDS011;9714;51.208;4.242;2023-02-16T03:22:33;81.10;;;42.33;;
19163;SDS011;9714;51.208;4.242;2023-02-16T03:25:19;73.73;;;41.83;;
19163;SDS011;9714;51.208;4.242;2023-02-16T03:28:06;68.40;;;41.10;;
19163;SDS011;9714;51.208;4.242;2023-02-16T03:30:53;74.27;;;41.57;;
19163;SDS011;9714;51.208;4.242;2023-02-16T03:33:23;77.87;;;41.97;;
19163;SDS011;9714;51.208;4.242;2023-02-16T03:35:51;78.77;;;42.80;;
19163;SDS011;9714;51.208;4.242;2023-02-16T03:38:20;72.33;;;42.17;;
19163;SDS011;9714;51.208;4.242;2023-02-16T03:40:51;72.43;;;42.47;;
19163;SDS011;9714;51.208;4.242;2023-02-16T03:43:18;74.97;;;42.80;;
19163;SDS011;9714;51.208;4.242;2023-02-16T03:45:49;73.53;;;43.17;;
19163;SDS011;9714;51.208;4.242;2023-02-16T03:51:06;74.67;;;41.20;;
19163;SDS011;9714;51.208;4.242;2023-02-16T03:53:33;77.77;;;42.03;;
19163;SDS011;9714;51.208;4.242;2023-02-16T03:56:00;72.13;;;39.87;;
19163;SDS011;9714;51.208;4.242;2023-02-16T03:58:27;74.87;;;41.60;;
19163;SDS011;9714;51.208;4.242;2023-02-16T04:00:54;66.90;;;39.53;;
19163;SDS011;9714;51.208;4.242;2023-02-16T04:03:23;68.07;;;40.00;;
19163;SDS011;9714;51.208;4.242;2023-02-16T04:05:52;74.37;;;41.77;;
19163;SDS011;9714;51.208;4.242;2023-02-16T04:08:20;67.60;;;39.57;;
19163;SDS011;9714;51.208;4.242;2023-02-16T04:10:48;66.60;;;40.30;;
19163;SDS011;9714;51.208;4.242;2023-02-16T04:13:25;70.63;;;41.93;;
19163;SDS011;9714;51.208;4.242;2023-02-16T04:19:00;66.87;;;40.23;;
19163;SDS011;9714;51.208;4.242;2023-02-16T04:21:28;67.27;;;38.87;;
19163;SDS011;9714;51.208;4.242;2023-02-16T04:23:55;71.23;;;38.53;;
19163;SDS011;9714;51.208;4.242;2023-02-16T04:26:22;73.23;;;41.10;;
19163;SDS011;9714;51.208;4.242;2023-02-16T04:28:49;69.90;;;38.20;;
19163;SDS011;9714;51.208;4.242;2023-02-16T04:31:17;67.00;;;39.27;;
19163;SDS011;9714;51.208;4.242;2023-02-16T04:33:44;71.47;;;40.50;;
19163;SDS011;9714;51.208;4.242;2023-02-16T04:36:13;63.33;;;39.67;;
19163;SDS011;9714;51.208;4.242;2023-02-16T04:38:52;67.73;;;40.03;;
19163;SDS011;9714;51.208;4.242;2023-02-16T04:41:27;67.37;;;39.30;;
19163;SDS011;9714;51.208;4.242;2023-02-16T04:52:47;67.43;;;38.90;;
19163;SDS011;9714;51.208;4.242;2023-02-16T04:55:15;65.00;;;37.87;;
19163;SDS011;9714;51.208;4.242;2023-02-16T04:57:42;63.83;;;37.73;;
19163;SDS011;9714;51.208;4.242;2023-02-16T05:00:10;63.20;;;37.83;;
19163;SDS011;9714;51.208;4.242;2023-02-16T05:02:40;65.27;;;38.47;;
19163;SDS011;9714;51.208;4.242;2023-02-16T05:05:13;70.40;;;38.27;;
19163;SDS011;9714;51.208;4.242;2023-02-16T05:07:41;67.03;;;37.60;;
19163;SDS011;9714;51.208;4.242;2023-02-16T05:10:15;63.47;;;37.60;;
19163;SDS011;9714;51.208;4.242;2023-02-16T05:15:31;65.43;;;37.27;;
19163;SDS011;9714;51.208;4.242;2023-02-16T05:17:58;62.27;;;38.33;;
19163;SDS011;9714;51.208;4.242;2023-02-16T05:23:39;65.47;;;38.50;;
19163;SDS011;9714;51.208;4.242;2023-02-16T05:26:20;61.00;;;36.87;;
19163;SDS011;9714;51.208;4.242;2023-02-16T05:28:54;64.00;;;38.07;;
19163;SDS011;9714;51.208;4.242;2023-02-16T05:31:24;63.97;;;36.33;;
19163;SDS011;9714;51.208;4.242;2023-02-16T05:33:58;66.23;;;37.07;;
19163;SDS011;9714;51.208;4.242;2023-02-16T05:36:26;65.80;;;37.23;;
19163;SDS011;9714;51.208;4.242;2023-02-16T05:38:54;63.60;;;35.90;;
19163;SDS011;9714;51.208;4.242;2023-02-16T05:41:23;63.07;;;36.50;;
19163;SDS011;9714;51.208;4.242;2023-02-16T05:43:52;63.87;;;34.77;;
19163;SDS011;9714;51.208;4.242;2023-02-16T05:46:24;59.17;;;36.40;;
19163;SDS011;9714;51.208;4.242;2023-02-16T05:49:01;60.33;;;36.87;;
19163;SDS011;9714;51.208;4.242;2023-02-16T05:51:31;64.63;;;36.00;;
19163;SDS011;9714;51.208;4.242;2023-02-16T05:53:58;61.37;;;37.43;;
19163;SDS011;9714;51.208;4.242;2023-02-16T05:56:26;69.03;;;35.87;;
19163;SDS011;9714;51.208;4.242;2023-02-16T05:58:58;61.90;;;37.60;;
19163;SDS011;9714;51.208;4.242;2023-02-16T06:01:26;58.80;;;35.23;;
19163;SDS011;9714;51.208;4.242;2023-02-16T06:03:56;61.03;;;37.10;;
19163;SDS011;9714;51.208;4.242;2023-02-16T06:06:24;63.80;;;36.83;;
19163;SDS011;9714;51.208;4.242;2023-02-16T06:08:57;63.87;;;38.50;;
19163;SDS011;9714;51.208;4.242;2023-02-16T06:11:27;66.23;;;36.50;;
19163;SDS011;9714;51.208;4.242;2023-02-16T06:14:03;56.23;;;35.37;;
19163;SDS011;9714;51.208;4.242;2023-02-16T06:22:14;64.53;;;35.40;;
19163;SDS011;9714;51.208;4.242;2023-02-16T06:24:42;57.20;;;35.30;;
19163;SDS011;9714;51.208;4.242;2023-02-16T06:27:24;57.60;;;34.67;;
19163;SDS011;9714;51.208;4.242;2023-02-16T06:29:58;62.40;;;35.63;;
19163;SDS011;9714;51.208;4.242;2023-02-16T06:32:27;62.13;;;35.27;;
19163;SDS011;9714;51.208;4.242;2023-02-16T06:34:54;61.43;;;35.07;;
19163;SDS011;9714;51.208;4.242;2023-02-16T06:37:27;65.87;;;35.30;;
19163;SDS011;9714;51.208;4.242;2023-02-16T06:40:09;55.33;;;31.60;;
19163;SDS011;9714;51.208;4.242;2023-02-16T06:42:42;56.07;;;35.27;;
19163;SDS011;9714;51.208;4.242;2023-02-16T06:47:45;60.17;;;34.90;;
19163;SDS011;9714;51.208;4.242;2023-02-16T06:50:29;66.03;;;36.40;;
19163;SDS011;9714;51.208;4.242;2023-02-16T06:55:59;56.03;;;34.87;;
19163;SDS011;9714;51.208;4.242;2023-02-16T06:58:28;63.93;;;35.53;;
19163;SDS011;9714;51.208;4.242;2023-02-16T07:00:55;57.80;;;34.37;;
19163;SDS011;9714;51.208;4.242;2023-02-16T07:03:22;58.30;;;34.40;;
19163;SDS011;9714;51.208;4.242;2023-02-16T07:05:49;63.57;;;34.73;;
19163;SDS011;9714;51.208;4.242;2023-02-16T07:08:18;56.63;;;34.87;;
19163;SDS011;9714;51.208;4.242;2023-02-16T07:10:51;63.93;;;34.60;;
19163;SDS011;9714;51.208;4.242;2023-02-16T07:13:20;63.10;;;34.50;;
19163;SDS011;9714;51.208;4.242;2023-02-16T07:15:48;59.07;;;34.30;;
19163;SDS011;9714;51.208;4.242;2023-02-16T07:18:16;59.83;;;35.70;;
19163;SDS011;9714;51.208;4.242;2023-02-16T07:20:43;59.47;;;34.40;;
19163;SDS011;9714;51.208;4.242;2023-02-16T07:23:10;55.83;;;34.10;;
19163;SDS011;9714;51.208;4.242;2023-02-16T07:25:37;59.37;;;35.03;;
19163;SDS011;9714;51.208;4.242;2023-02-16T07:28:05;62.00;;;35.37;;
19163;SDS011;9714;51.208;4.242;2023-02-16T07:30:38;60.17;;;33.87;;
19163;SDS011;9714;51.208;4.242;2023-02-16T07:33:08;60.63;;;35.87;;
19163;SDS011;9714;51.208;4.242;2023-02-16T07:35:38;58.67;;;33.30;;
19163;SDS011;9714;51.208;4.242;2023-02-16T07:38:10;56.10;;;35.80;;
19163;SDS011;9714;51.208;4.242;2023-02-16T07:43:08;58.23;;;33.77;;
19163;SDS011;9714;51.208;4.242;2023-02-16T07:45:35;54.43;;;33.30;;
19163;SDS011;9714;51.208;4.242;2023-02-16T07:48:02;58.30;;;35.03;;
19163;SDS011;9714;51.208;4.242;2023-02-16T07:50:32;62.60;;;34.70;;
19163;SDS011;9714;51.208;4.242;2023-02-16T07:53:02;55.60;;;34.27;;
19163;SDS011;9714;51.208;4.242;2023-02-16T07:55:37;58.53;;;34.33;;
19163;SDS011;9714;51.208;4.242;2023-02-16T07:58:07;53.33;;;32.60;;
19163;SDS011;9714;51.208;4.242;2023-02-16T08:00:34;52.80;;;32.77;;
19163;SDS011;9714;51.208;4.242;2023-02-16T08:03:02;59.23;;;33.60;;
19163;SDS011;9714;51.208;4.242;2023-02-16T08:05:29;56.80;;;33.27;;
19163;SDS011;9714;51.208;4.242;2023-02-16T08:08:00;54.80;;;31.53;;
19163;SDS011;9714;51.208;4.242;2023-02-16T08:10:27;62.67;;;33.03;;
19163;SDS011;9714;51.208;4.242;2023-02-16T08:12:54;56.67;;;32.03;;
19163;SDS011;9714;51.208;4.242;2023-02-16T08:15:22;54.03;;;31.43;;
19163;SDS011;9714;51.208;4.242;2023-02-16T08:17:49;55.33;;;32.23;;
19163;SDS011;9714;51.208;4.242;2023-02-16T08:20:16;51.83;;;32.37;;
19163;SDS011;9714;51.208;4.242;2023-02-16T08:22:44;52.67;;;31.60;;
19163;SDS011;9714;51.208;4.242;2023-02-16T08:25:13;54.33;;;32.83;;
19163;SDS011;9714;51.208;4.242;2023-02-16T08:27:41;54.60;;;34.63;;
19163;SDS011;9714;51.208;4.242;2023-02-16T08:30:11;56.17;;;33.20;;
19163;SDS011;9714;51.208;4.242;2023-02-16T08:32:41;57.73;;;34.17;;
19163;SDS011;9714;51.208;4.242;2023-02-16T08:35:11;58.17;;;33.73;;
19163;SDS011;9714;51.208;4.242;2023-02-16T08:37:39;55.20;;;34.07;;
19163;SDS011;9714;51.208;4.242;2023-02-16T08:40:09;56.30;;;32.43;;
19163;SDS011;9714;51.208;4.242;2023-02-16T08:42:39;55.67;;;34.03;;
19163;SDS011;9714;51.208;4.242;2023-02-16T08:45:06;57.07;;;35.70;;
19163;SDS011;9714;51.208;4.242;2023-02-16T08:47:36;57.93;;;32.90;;
19163;SDS011;9714;51.208;4.242;2023-02-16T08:50:04;61.20;;;34.67;;
19163;SDS011;9714;51.208;4.242;2023-02-16T08:52:32;60.47;;;35.40;;
19163;SDS011;9714;51.208;4.242;2023-02-16T08:55:01;57.20;;;34.13;;
19163;SDS011;9714;51.208;4.242;2023-02-16T08:57:28;62.93;;;35.50;;
19163;SDS011;9714;51.208;4.242;2023-02-16T09:00:01;57.23;;;35.47;;
19163;SDS011;9714;51.208;4.242;2023-02-16T09:02:48;54.43;;;35.07;;
19163;SDS011;9714;51.208;4.242;2023-02-16T09:05:15;59.43;;;35.83;;
19163;SDS011;9714;51.208;4.242;2023-02-16T09:07:42;57.00;;;34.97;;
19163;SDS011;9714;51.208;4.242;2023-02-16T09:10:09;61.53;;;35.33;;
19163;SDS011;9714;51.208;4.242;2023-02-16T09:12:37;61.67;;;37.53;;
19163;SDS011;9714;51.208;4.242;2023-02-16T09:15:05;56.93;;;35.13;;
19163;SDS011;9714;51.208;4.242;2023-02-16T09:17:33;61.27;;;37.00;;
19163;SDS011;9714;51.208;4.242;2023-02-16T09:20:01;56.83;;;37.27;;
19163;SDS011;9714;51.208;4.242;2023-02-16T09:22:30;58.87;;;35.53;;
19163;SDS011;9714;51.208;4.242;2023-02-16T09:24:58;55.97;;;34.33;;
19163;SDS011;9714;51.208;4.242;2023-02-16T09:27:26;66.00;;;37.23;;
19163;SDS011;9714;51.208;4.242;2023-02-16T09:29:52;58.57;;;36.00;;
19163;SDS011;9714;51.208;4.242;2023-02-16T09:32:21;66.83;;;38.03;;
19163;SDS011;9714;51.208;4.242;2023-02-16T09:34:49;66.13;;;37.40;;
19163;SDS011;9714;51.208;4.242;2023-02-16T09:37:16;63.33;;;36.00;;
19163;SDS011;9714;51.208;4.242;2023-02-16T09:39:43;61.03;;;34.77;;
19163;SDS011;9714;51.208;4.242;2023-02-16T09:42:15;59.70;;;33.80;;
19163;SDS011;9714;51.208;4.242;2023-02-16T09:44:55;62.60;;;33.17;;
19163;SDS011;9714;51.208;4.242;2023-02-16T09:47:30;59.40;;;33.70;;
19163;SDS011;9714;51.208;4.242;2023-02-16T09:50:00;51.97;;;32.53;;
19163;SDS011;9714;51.208;4.242;2023-02-16T09:52:33;55.13;;;34.77;;
19163;SDS011;9714;51.208;4.242;2023-02-16T09:55:05;62.90;;;35.40;;
19163;SDS011;9714;51.208;4.242;2023-02-16T10:00:25;64.80;;;34.83;;
19163;SDS011;9714;51.208;4.242;2023-02-16T10:03:07;58.70;;;34.93;;
19163;SDS011;9714;51.208;4.242;2023-02-16T10:05:46;63.57;;;36.07;;
19163;SDS011;9714;51.208;4.242;2023-02-16T10:08:23;58.43;;;34.87;;
19163;SDS011;9714;51.208;4.242;2023-02-16T10:10:55;54.30;;;34.87;;
19163;SDS011;9714;51.208;4.242;2023-02-16T10:13:33;54.23;;;33.30;;
19163;SDS011;9714;51.208;4.242;2023-02-16T10:16:05;57.47;;;35.43;;
19163;SDS011;9714;51.208;4.242;2023-02-16T10:18:39;54.60;;;33.57;;
19163;SDS011;9714;51.208;4.242;2023-02-16T10:21:23;60.40;;;31.40;;
19163;SDS011;9714;51.208;4.242;2023-02-16T10:23:55;50.83;;;33.30;;
19163;SDS011;9714;51.208;4.242;2023-02-16T10:26:27;53.87;;;33.63;;
19163;SDS011;9714;51.208;4.242;2023-02-16T10:29:00;54.40;;;33.07;;
19163;SDS011;9714;51.208;4.242;2023-02-16T10:31:33;55.73;;;33.23;;
19163;SDS011;9714;51.208;4.242;2023-02-16T10:34:15;61.47;;;36.80;;
19163;SDS011;9714;51.208;4.242;2023-02-16T10:36:50;53.93;;;32.60;;
19163;SDS011;9714;51.208;4.242;2023-02-16T10:39:32;54.50;;;32.83;;
19163;SDS011;9714;51.208;4.242;2023-02-16T10:42:06;49.93;;;31.57;;
19163;SDS011;9714;51.208;4.242;2023-02-16T10:44:43;48.53;;;31.23;;
19163;SDS011;9714;51.208;4.242;2023-02-16T10:50:02;47.93;;;30.33;;
19163;SDS011;9714;51.208;4.242;2023-02-16T10:52:32;50.20;;;30.60;;
19163;SDS011;9714;51.208;4.242;2023-02-16T10:55:04;48.73;;;30.20;;
19163;SDS011;9714;51.208;4.242;2023-02-16T10:57:34;48.97;;;28.93;;
19163;SDS011;9714;51.208;4.242;2023-02-16T11:00:03;49.07;;;29.47;;
19163;SDS011;9714;51.208;4.242;2023-02-16T11:02:37;49.07;;;27.50;;
19163;SDS011;9714;51.208;4.242;2023-02-16T11:05:30;50.97;;;27.70;;
19163;SDS011;9714;51.208;4.242;2023-02-16T11:08:00;41.00;;;27.03;;
19163;SDS011;9714;51.208;4.242;2023-02-16T11:10:34;45.30;;;27.07;;
19163;SDS011;9714;51.208;4.242;2023-02-16T11:15:55;44.80;;;27.30;;
19163;SDS011;9714;51.208;4.242;2023-02-16T11:18:27;43.00;;;26.03;;
19163;SDS011;9714;51.208;4.242;2023-02-16T11:20:59;42.87;;;28.10;;
19163;SDS011;9714;51.208;4.242;2023-02-16T11:23:29;42.57;;;28.20;;
19163;SDS011;9714;51.208;4.242;2023-02-16T11:25:59;42.00;;;27.03;;
19163;SDS011;9714;51.208;4.242;2023-02-16T11:28:30;48.77;;;26.93;;
19163;SDS011;9714;51.208;4.242;2023-02-16T11:31:01;44.10;;;24.27;;
19163;SDS011;9714;51.208;4.242;2023-02-16T11:33:41;41.97;;;23.40;;
19163;SDS011;9714;51.208;4.242;2023-02-16T11:36:23;37.60;;;23.87;;
19163;SDS011;9714;51.208;4.242;2023-02-16T11:38:58;41.20;;;24.30;;
19163;SDS011;9714;51.208;4.242;2023-02-16T11:41:27;40.37;;;23.43;;
19163;SDS011;9714;51.208;4.242;2023-02-16T11:43:57;38.53;;;21.60;;
19163;SDS011;9714;51.208;4.242;2023-02-16T11:46:25;34.73;;;21.63;;
19163;SDS011;9714;51.208;4.242;2023-02-16T11:48:54;34.80;;;22.30;;
19163;SDS011;9714;51.208;4.242;2023-02-16T11:51:30;34.93;;;21.30;;
19163;SDS011;9714;51.208;4.242;2023-02-16T11:54:01;35.00;;;20.93;;
19163;SDS011;9714;51.208;4.242;2023-02-16T11:56:30;33.67;;;21.00;;
19163;SDS011;9714;51.208;4.242;2023-02-16T11:59:06;40.97;;;22.50;;
19163;SDS011;9714;51.208;4.242;2023-02-16T12:04:49;39.77;;;22.60;;
19163;SDS011;9714;51.208;4.242;2023-02-16T12:07:31;36.30;;;24.47;;
19163;SDS011;9714;51.208;4.242;2023-02-16T12:11:08;38.37;;;21.87;;
19163;SDS011;9714;51.208;4.242;2023-02-16T12:14:22;37.83;;;21.37;;
19163;SDS011;9714;51.208;4.242;2023-02-16T12:24:32;36.10;;;21.40;;
19163;SDS011;9714;51.208;4.242;2023-02-16T12:35:16;38.03;;;22.20;;
19163;SDS011;9714;51.208;4.242;2023-02-16T12:58:46;29.70;;;17.67;;
19163;SDS011;9714;51.208;4.242;2023-02-16T13:05:34;31.13;;;17.47;;
19163;SDS011;9714;51.208;4.242;2023-02-16T13:08:52;31.23;;;18.40;;
19163;SDS011;9714;51.208;4.242;2023-02-16T14:13:48;35.37;;;18.73;;
19163;SDS011;9714;51.208;4.242;2023-02-16T14:19:52;30.37;;;17.07;;
19163;SDS011;9714;51.208;4.242;2023-02-16T14:22:33;36.00;;;17.40;;
19163;SDS011;9714;51.208;4.242;2023-02-16T14:28:48;29.67;;;16.97;;
19163;SDS011;9714;51.208;4.242;2023-02-16T14:31:29;34.73;;;18.87;;
19163;SDS011;9714;51.208;4.242;2023-02-16T14:34:06;36.57;;;18.90;;
19163;SDS011;9714;51.208;4.242;2023-02-16T14:37:07;34.30;;;18.17;;
19163;SDS011;9714;51.208;4.242;2023-02-16T14:42:50;36.23;;;18.63;;
19163;SDS011;9714;51.208;4.242;2023-02-16T14:48:28;34.13;;;19.33;;
19163;SDS011;9714;51.208;4.242;2023-02-16T14:51:28;32.97;;;17.70;;
19163;SDS011;9714;51.208;4.242;2023-02-16T14:57:29;33.97;;;19.77;;
19163;SDS011;9714;51.208;4.242;2023-02-16T15:00:22;33.93;;;17.87;;
19163;SDS011;9714;51.208;4.242;2023-02-16T15:02:57;32.47;;;18.77;;
19163;SDS011;9714;51.208;4.242;2023-02-16T15:05:27;32.97;;;17.23;;
19163;SDS011;9714;51.208;4.242;2023-02-16T15:08:03;29.90;;;17.83;;
19163;SDS011;9714;51.208;4.242;2023-02-16T15:10:38;35.30;;;19.23;;
19163;SDS011;9714;51.208;4.242;2023-02-16T15:13:05;30.27;;;18.47;;
19163;SDS011;9714;51.208;4.242;2023-02-16T15:15:38;31.17;;;17.97;;
19163;SDS011;9714;51.208;4.242;2023-02-16T15:18:13;33.83;;;17.97;;
19163;SDS011;9714;51.208;4.242;2023-02-16T15:20:44;30.13;;;18.50;;
19163;SDS011;9714;51.208;4.242;2023-02-16T15:23:17;36.03;;;19.57;;
19163;SDS011;9714;51.208;4.242;2023-02-16T15:25:54;30.53;;;17.03;;
19163;SDS011;9714;51.208;4.242;2023-02-16T15:28:24;28.93;;;17.37;;
19163;SDS011;9714;51.208;4.242;2023-02-16T15:30:54;37.57;;;19.17;;
19163;SDS011;9714;51.208;4.242;2023-02-16T15:33:32;30.93;;;18.00;;
19163;SDS011;9714;51.208;4.242;2023-02-16T15:36:05;27.70;;;16.23;;
19163;SDS011;9714;51.208;4.242;2023-02-16T15:38:36;31.47;;;16.90;;
19163;SDS011;9714;51.208;4.242;2023-02-16T15:41:07;35.17;;;18.03;;
19163;SDS011;9714;51.208;4.242;2023-02-16T15:46:52;27.90;;;15.50;;
19163;SDS011;9714;51.208;4.242;2023-02-16T15:49:33;31.00;;;15.23;;
19163;SDS011;9714;51.208;4.242;2023-02-16T15:52:05;30.83;;;16.13;;
19163;SDS011;9714;51.208;4.242;2023-02-16T15:54:43;28.00;;;16.10;;
19163;SDS011;9714;51.208;4.242;2023-02-16T15:57:18;35.13;;;16.03;;
19163;SDS011;9714;51.208;4.242;2023-02-16T15:59:50;29.20;;;14.90;;
19163;SDS011;9714;51.208;4.242;2023-02-16T16:02:21;30.27;;;15.47;;
19163;SDS011;9714;51.208;4.242;2023-02-16T16:05:00;35.97;;;17.20;;
19163;SDS011;9714;51.208;4.242;2023-02-16T16:07:31;36.93;;;17.00;;
19163;SDS011;9714;51.208;4.242;2023-02-16T16:10:00;32.40;;;15.73;;
19163;SDS011;9714;51.208;4.242;2023-02-16T16:12:32;29.87;;;16.17;;
19163;SDS011;9714;51.208;4.242;2023-02-16T16:15:00;29.73;;;16.27;;
19163;SDS011;9714;51.208;4.242;2023-02-16T16:17:32;29.57;;;17.23;;
19163;SDS011;9714;51.208;4.242;2023-02-16T16:20:22;30.07;;;16.43;;
19163;SDS011;9714;51.208;4.242;2023-02-16T16:22:54;34.80;;;18.53;;
19163;SDS011;9714;51.208;4.242;2023-02-16T16:25:27;32.97;;;18.43;;
19163;SDS011;9714;51.208;4.242;2023-02-16T16:28:04;31.03;;;17.90;;
19163;SDS011;9714;51.208;4.242;2023-02-16T16:30:34;33.57;;;17.83;;
19163;SDS011;9714;51.208;4.242;2023-02-16T16:33:10;31.97;;;18.70;;
19163;SDS011;9714;51.208;4.242;2023-02-16T16:35:41;34.80;;;18.90;;
19163;SDS011;9714;51.208;4.242;2023-02-16T16:38:20;34.30;;;18.53;;
19163;SDS011;9714;51.208;4.242;2023-02-16T16:41:03;31.13;;;18.63;;
19163;SDS011;9714;51.208;4.242;2023-02-16T16:46:18;34.70;;;19.30;;
19163;SDS011;9714;51.208;4.242;2023-02-16T16:48:51;32.83;;;16.33;;
19163;SDS011;9714;51.208;4.242;2023-02-16T16:51:35;33.53;;;19.10;;
19163;SDS011;9714;51.208;4.242;2023-02-16T16:54:29;30.37;;;18.20;;
19163;SDS011;9714;51.208;4.242;2023-02-16T16:56:57;37.00;;;19.07;;
19163;SDS011;9714;51.208;4.242;2023-02-16T16:59:26;37.33;;;18.90;;
19163;SDS011;9714;51.208;4.242;2023-02-16T17:01:53;38.23;;;20.10;;
19163;SDS011;9714;51.208;4.242;2023-02-16T17:04:23;36.10;;;18.37;;
19163;SDS011;9714;51.208;4.242;2023-02-16T17:06:55;33.87;;;18.00;;
19163;SDS011;9714;51.208;4.242;2023-02-16T17:09:25;29.17;;;15.37;;
19163;SDS011;9714;51.208;4.242;2023-02-16T17:11:54;39.03;;;19.20;;
19163;SDS011;9714;51.208;4.242;2023-02-16T17:14:23;33.67;;;19.83;;
19163;SDS011;9714;51.208;4.242;2023-02-16T17:16:54;32.83;;;18.10;;
19163;SDS011;9714;51.208;4.242;2023-02-16T17:19:22;33.90;;;16.33;;
19163;SDS011;9714;51.208;4.242;2023-02-16T17:21:55;29.67;;;17.33;;
19163;SDS011;9714;51.208;4.242;2023-02-16T17:24:26;29.50;;;17.00;;
19163;SDS011;9714;51.208;4.242;2023-02-16T17:26:54;32.10;;;16.90;;
19163;SDS011;9714;51.208;4.242;2023-02-16T17:29:23;32.37;;;18.50;;
19163;SDS011;9714;51.208;4.242;2023-02-16T17:35:14;35.07;;;17.73;;
19163;SDS011;9714;51.208;4.242;2023-02-16T17:41:05;36.87;;;21.37;;
19163;SDS011;9714;51.208;4.242;2023-02-16T17:43:45;38.60;;;22.23;;
19163;SDS011;9714;51.208;4.242;2023-02-16T17:55:38;32.10;;;19.73;;
19163;SDS011;9714;51.208;4.242;2023-02-16T17:58:08;62.93;;;35.47;;
19163;SDS011;9714;51.208;4.242;2023-02-16T18:00:50;41.43;;;24.37;;
19163;SDS011;9714;51.208;4.242;2023-02-16T18:12:28;39.97;;;22.63;;
19163;SDS011;9714;51.208;4.242;2023-02-16T18:18:23;42.10;;;24.47;;
19163;SDS011;9714;51.208;4.242;2023-02-16T18:20:50;35.97;;;23.60;;
19163;SDS011;9714;51.208;4.242;2023-02-16T18:23:21;39.77;;;23.73;;
19163;SDS011;9714;51.208;4.242;2023-02-16T18:25:49;43.27;;;22.80;;
19163;SDS011;9714;51.208;4.242;2023-02-16T18:28:24;44.53;;;25.27;;
19163;SDS011;9714;51.208;4.242;2023-02-16T18:31:03;37.27;;;22.33;;
19163;SDS011;9714;51.208;4.242;2023-02-16T18:33:32;38.67;;;23.13;;
19163;SDS011;9714;51.208;4.242;2023-02-16T18:38:29;34.57;;;21.73;;
19163;SDS011;9714;51.208;4.242;2023-02-16T18:40:58;36.20;;;21.07;;
19163;SDS011;9714;51.208;4.242;2023-02-16T18:43:27;34.30;;;21.10;;
19163;SDS011;9714;51.208;4.242;2023-02-16T18:45:55;35.07;;;21.03;;
19163;SDS011;9714;51.208;4.242;2023-02-16T18:48:23;35.70;;;20.47;;
19163;SDS011;9714;51.208;4.242;2023-02-16T18:50:52;33.63;;;18.43;;
19163;SDS011;9714;51.208;4.242;2023-02-16T18:53:24;31.07;;;17.80;;
19163;SDS011;9714;51.208;4.242;2023-02-16T18:55:57;33.60;;;19.07;;
19163;SDS011;9714;51.208;4.242;2023-02-16T18:58:31;32.40;;;15.87;;
19163;SDS011;9714;51.208;4.242;2023-02-16T19:01:10;40.50;;;21.03;;
19163;SDS011;9714;51.208;4.242;2023-02-16T19:03:40;47.97;;;26.17;;
19163;SDS011;9714;51.208;4.242;2023-02-16T19:06:07;38.20;;;23.50;;
19163;SDS011;9714;51.208;4.242;2023-02-16T19:08:45;32.77;;;19.77;;
19163;SDS011;9714;51.208;4.242;2023-02-16T19:11:45;35.03;;;22.80;;
19163;SDS011;9714;51.208;4.242;2023-02-16T19:14:12;33.27;;;21.13;;
19163;SDS011;9714;51.208;4.242;2023-02-16T19:16:43;34.83;;;21.43;;
19163;SDS011;9714;51.208;4.242;2023-02-16T19:19:16;35.63;;;25.17;;
19163;SDS011;9714;51.208;4.242;2023-02-16T19:21:52;36.70;;;23.77;;
19163;SDS011;9714;51.208;4.242;2023-02-16T19:24:24;36.77;;;22.17;;